Time;durP1;ratioP1;P1;durP2;ratioP2;P2;SDS_P1;SDS_P2;PMS_P1;PMS_P2;Temp;Humidity;BMP_temperature;BMP_pressure;BME280_temperature;BME280_humidity;BME280_pressure;Samples;Min_cycle;Max_cycle;Signal;HPM_P1;HPM_P2
2022/09/10 00:00:47;;;;;;;;;;;;;;;22.62;67.35;96458.77;181477;291;622165;-48
2022/09/10 00:01:49;;;;;;;;;;;;;;;22.58;67.29;96453.73;180966;292;620460;-49
2022/09/10 00:02:51;;;;;;;;;;;;;;;22.58;67.25;96459.26;182031;291;620233;-49
2022/09/10 00:03:53;;;;;;;;;;;;;;;22.56;67.22;96454.67;180986;292;621293;-48
2022/09/10 00:04:55;;;;;;;;;;;;;;;22.55;67.29;96454.45;180915;293;621179;-50
2022/09/10 00:05:57;;;;;;;;;;;;;;;22.51;67.31;96453.75;180464;293;622280;-48
2022/09/10 00:06:59;;;;;;;;;;;;;;;22.50;67.29;96453.53;180470;293;620408;-47
2022/09/10 00:08:03;;;;;;;;;;;;;;;22.45;67.46;96455.19;180704;293;619720;-47
2022/09/10 00:09:05;;;;;;;;;;;;;;;22.42;67.78;96451.73;180386;293;620435;-48
2022/09/10 00:10:07;;;;;;;;;;;;;;;22.41;67.70;96456.22;181500;292;621417;-49
2022/09/10 00:11:09;;;;;;;;;;;;;;;22.38;67.67;96456.94;181386;292;619950;-46
2022/09/10 00:12:11;;;;;;;;;;;;;;;22.38;67.62;96459.12;181554;292;621372;-47
2022/09/10 00:13:13;;;;;;;;;;;;;;;22.39;67.70;96463.48;181591;291;621364;-49
2022/09/10 00:14:15;;;;;;;;;;;;;;;22.38;67.65;96459.70;181535;292;619466;-49
2022/09/10 00:15:19;;;;;;;;;;;;;;;22.38;67.66;96461.88;181476;292;621196;-47
2022/09/10 00:16:22;;;;;;;;;;;;;;;22.37;67.62;96460.86;181428;292;622199;-47
2022/09/10 00:17:24;;;;;;;;;;;;;;;22.37;67.57;96458.90;181602;292;622669;-50
2022/09/10 00:18:26;;;;;;;;;;;;;;;22.36;67.71;96450.39;181523;292;618720;-46
2022/09/10 00:19:28;;;;;;;;;;;;;;;22.37;67.65;96464.42;181254;292;621293;-48
2022/09/10 00:20:30;;;;;;;;;;;;;;;22.35;67.64;96456.27;181496;292;620894;-51
2022/09/10 00:21:32;;;;;;;;;;;;;;;22.34;68.01;96462.38;181536;292;621363;-46
2022/09/10 00:22:34;;;;;;;;;;;;;;;22.33;67.95;96466.84;181520;292;620624;-46
2022/09/10 00:23:36;;;;;;;;;;;;;;;22.32;68.10;96462.47;181287;291;619236;-49
2022/09/10 00:24:38;;;;;;;;;;;;;;;22.31;68.35;96469.95;181654;292;620753;-49
2022/09/10 00:25:41;;;;;;;;;;;;;;;22.27;68.96;96466.88;181567;292;619407;-48
2022/09/10 00:26:43;;;;;;;;;;;;;;;22.24;68.67;96471.16;181575;292;621346;-49
2022/09/10 00:27:45;;;;;;;;;;;;;;;22.23;68.45;96469.55;181511;292;620466;-49
2022/09/10 00:28:47;;;;;;;;;;;;;;;22.25;68.24;96472.76;181546;292;620665;-50
2022/09/10 00:29:49;;;;;;;;;;;;;;;22.28;68.14;96467.11;181676;292;619939;-46
2022/09/10 00:30:51;;;;;;;;;;;;;;;22.28;68.04;96463.77;181117;292;619186;-49
2022/09/10 00:31:53;;;;;;;;;;;;;;;22.30;67.95;96461.45;181578;292;621121;-48
2022/09/10 00:32:55;;;;;;;;;;;;;;;22.31;68.07;96465.02;181565;292;621527;-48
2022/09/10 00:33:58;;;;;;;;;;;;;;;22.33;68.06;96465.45;181541;292;620406;-45
2022/09/10 00:35:00;;;;;;;;;;;;;;;22.34;68.06;96459.61;181185;292;620850;-45
2022/09/10 00:36:04;;;;;;;;;;;;;;;22.37;68.04;96462.23;181582;292;621309;-46
2022/09/10 00:37:06;;;;;;;;;;;;;;;22.40;68.01;96464.28;181680;292;594433;-48
2022/09/10 00:38:07;;;;;;;;;;;;;;;22.42;67.96;96468.29;181531;292;618615;-45
2022/09/10 00:39:09;;;;;;;;;;;;;;;22.44;67.94;96466.00;181328;292;619890;-46
2022/09/10 00:40:11;;;;;;;;;;;;;;;22.45;67.92;96462.67;181633;292;620402;-47
2022/09/10 00:41:13;;;;;;;;;;;;;;;22.49;67.88;96467.70;181434;292;619938;-49
2022/09/10 00:42:17;;;;;;;;;;;;;;;22.51;67.87;96466.76;181553;292;620155;-44
2022/09/10 00:43:19;;;;;;;;;;;;;;;22.52;67.79;96467.78;181635;291;589373;-47
2022/09/10 00:44:21;;;;;;;;;;;;;;;22.56;67.74;96466.52;181599;292;620586;-47
2022/09/10 00:45:23;;;;;;;;;;;;;;;22.58;67.70;96468.34;181543;292;620749;-45
2022/09/10 00:46:25;;;;;;;;;;;;;;;22.61;67.64;96472.35;181269;292;622058;-46
2022/09/10 00:47:27;;;;;;;;;;;;;;;22.60;67.62;96468.78;181368;292;619960;-45
2022/09/10 00:48:29;;;;;;;;;;;;;;;22.63;67.55;96470.03;181569;292;621422;-48
2022/09/10 00:49:30;;;;;;;;;;;;;;;22.65;67.51;96466.33;181167;292;619238;-48
2022/09/10 00:50:32;;;;;;;;;;;;;;;22.65;67.46;96469.92;181630;292;620667;-48
2022/09/10 00:51:34;;;;;;;;;;;;;;;22.64;67.43;96459.20;181585;292;620188;-45
2022/09/10 00:52:36;;;;;;;;;;;;;;;22.65;67.40;96464.41;181589;292;621009;-47
2022/09/10 00:53:39;;;;;;;;;;;;;;;22.65;67.35;96469.09;181524;292;621424;-46
2022/09/10 00:54:41;;;;;;;;;;;;;;;22.66;67.35;96463.83;181630;292;621228;-45
2022/09/10 00:55:43;;;;;;;;;;;;;;;22.68;67.31;96467.03;181553;292;621354;-46
2022/09/10 00:56:45;;;;;;;;;;;;;;;22.67;67.29;96462.66;181494;292;620998;-47
2022/09/10 00:57:47;;;;;;;;;;;;;;;22.66;67.26;96470.73;181183;293;621566;-46
2022/09/10 00:58:48;;;;;;;;;;;;;;;22.67;67.25;96466.81;181232;293;619541;-45
2022/09/10 00:59:50;;;;;;;;;;;;;;;22.67;67.21;96468.19;181038;293;621285;-45
2022/09/10 01:00:52;;;;;;;;;;;;;;;22.67;67.19;96468.19;181084;293;621102;-45
2022/09/10 01:01:54;;;;;;;;;;;;;;;22.66;67.16;96467.97;180878;293;619941;-48
2022/09/10 01:02:57;;;;;;;;;;;;;;;22.67;67.14;96470.38;181214;293;621303;-45
2022/09/10 01:03:59;;;;;;;;;;;;;;;22.65;67.15;96466.33;180870;292;620100;-46
2022/09/10 01:05:01;;;;;;;;;;;;;;;22.66;67.12;96465.20;181125;293;621122;-47
2022/09/10 01:06:03;;;;;;;;;;;;;;;22.64;67.12;96467.49;181198;293;621396;-46
2022/09/10 01:07:05;;;;;;;;;;;;;;;22.64;67.10;96461.97;181036;293;620075;-47
2022/09/10 01:08:07;;;;;;;;;;;;;;;22.63;67.07;96465.89;180970;293;620891;-45
2022/09/10 01:09:09;;;;;;;;;;;;;;;22.63;67.07;96464.51;180898;293;620029;-46
2022/09/10 01:10:11;;;;;;;;;;;;;;;22.63;67.06;96464.51;181282;293;620946;-46
2022/09/10 01:11:13;;;;;;;;;;;;;;;22.62;67.07;96462.91;181007;293;620580;-46
2022/09/10 01:12:15;;;;;;;;;;;;;;;22.63;67.05;96464.51;181164;293;620389;-45
2022/09/10 01:13:17;;;;;;;;;;;;;;;22.61;67.07;96467.62;181141;293;621632;-47
2022/09/10 01:14:19;;;;;;;;;;;;;;;22.61;67.06;96469.59;180998;293;620976;-46
2022/09/10 01:15:21;;;;;;;;;;;;;;;22.61;67.07;96465.45;181263;293;621085;-46
2022/09/10 01:16:23;;;;;;;;;;;;;;;22.60;67.04;96470.17;181125;293;621250;-47
2022/09/10 01:17:25;;;;;;;;;;;;;;;22.59;67.03;96469.14;180869;293;621196;-45
2022/09/10 01:18:29;;;;;;;;;;;;;;;22.57;67.01;96464.56;181178;293;622141;-45
2022/09/10 01:19:31;;;;;;;;;;;;;;;22.58;67.04;96469.73;181179;293;621250;-44
2022/09/10 01:20:33;;;;;;;;;;;;;;;22.57;67.02;96463.18;181090;293;620432;-47
2022/09/10 01:21:35;;;;;;;;;;;;;;;22.56;67.01;96461.58;181190;293;621479;-46
2022/09/10 01:22:37;;;;;;;;;;;;;;;22.53;67.04;96461.68;180991;293;621108;-45
2022/09/10 01:23:40;;;;;;;;;;;;;;;22.55;67.05;96461.35;181112;293;620303;-47
2022/09/10 01:24:42;;;;;;;;;;;;;;;22.55;67.05;96462.73;181188;293;622067;-46
2022/09/10 01:25:44;;;;;;;;;;;;;;;22.52;67.07;96466.98;180796;293;620170;-45
2022/09/10 01:26:46;;;;;;;;;;;;;;;22.50;67.06;96467.34;180810;293;618864;-46
2022/09/10 01:27:48;;;;;;;;;;;;;;;22.50;67.07;96470.10;181164;293;621258;-46
2022/09/10 01:28:50;;;;;;;;;;;;;;;22.49;67.07;96460.80;181098;293;620923;-46
2022/09/10 01:29:52;;;;;;;;;;;;;;;22.48;67.07;96471.03;181184;293;620056;-45
2022/09/10 01:30:54;;;;;;;;;;;;;;;22.48;67.09;96468.86;181174;293;620865;-47
2022/09/10 01:31:56;;;;;;;;;;;;;;;22.47;67.07;96470.81;180954;293;621105;-45
2022/09/10 01:32:58;;;;;;;;;;;;;;;22.46;67.07;96465.07;181078;293;620309;-47
2022/09/10 01:34:01;;;;;;;;;;;;;;;22.45;67.10;96475.89;181339;293;620345;-45
2022/09/10 01:35:03;;;;;;;;;;;;;;;22.45;67.10;96464.05;181216;293;620531;-47
2022/09/10 01:36:05;;;;;;;;;;;;;;;22.45;67.12;96464.05;181124;293;621732;-46
2022/09/10 01:37:07;;;;;;;;;;;;;;;22.43;67.12;96460.23;181188;293;621500;-46
2022/09/10 01:38:09;;;;;;;;;;;;;;;22.40;67.12;96456.00;181149;293;620139;-45
2022/09/10 01:39:11;;;;;;;;;;;;;;;22.39;67.15;96452.44;181251;293;620617;-47
2022/09/10 01:40:13;;;;;;;;;;;;;;;22.40;67.17;96448.52;181137;293;620747;-45
2022/09/10 01:41:15;;;;;;;;;;;;;;;22.40;67.18;96454.63;181000;293;620214;-46
2022/09/10 01:42:17;;;;;;;;;;;;;;;22.36;67.20;96446.25;181153;293;619665;-48
2022/09/10 01:43:19;;;;;;;;;;;;;;;22.36;67.19;96447.63;181158;293;621259;-44
2022/09/10 01:44:22;;;;;;;;;;;;;;;22.35;67.21;96445.23;181177;293;620315;-45
2022/09/10 01:45:23;;;;;;;;;;;;;;;22.32;67.22;96438.43;181194;293;621047;-47
2022/09/10 01:46:25;;;;;;;;;;;;;;;22.33;67.23;96444.75;180925;293;621796;-47
2022/09/10 01:47:27;;;;;;;;;;;;;;;22.34;67.24;96445.80;181191;293;621208;-46
2022/09/10 01:48:29;;;;;;;;;;;;;;;22.31;67.25;96442.92;181184;293;621501;-45
2022/09/10 01:49:31;;;;;;;;;;;;;;;22.29;67.26;96439.14;180981;293;621213;-45
2022/09/10 01:50:33;;;;;;;;;;;;;;;22.31;67.26;96447.87;180415;293;620716;-47
2022/09/10 01:51:35;;;;;;;;;;;;;;;22.29;67.27;96451.56;180853;293;619879;-45
2022/09/10 01:52:37;;;;;;;;;;;;;;;22.30;67.28;96453.75;181202;293;621511;-46
2022/09/10 01:53:39;;;;;;;;;;;;;;;22.27;67.27;96444.22;181171;292;621109;-44
2022/09/10 01:54:41;;;;;;;;;;;;;;;22.27;67.30;96449.73;181138;293;622250;-45
2022/09/10 01:55:43;;;;;;;;;;;;;;;22.25;67.32;96443.77;181244;293;618909;-48
2022/09/10 01:56:45;;;;;;;;;;;;;;;22.25;67.32;96439.63;180772;293;620556;-45
2022/09/10 01:57:49;;;;;;;;;;;;;;;22.24;67.34;96444.94;180542;293;621152;-48
2022/09/10 01:58:53;;;;;;;;;;;;;;;22.23;67.36;96437.81;181071;293;620964;-46
2022/09/10 01:59:54;;;;;;;;;;;;;;;22.23;67.36;96442.75;180840;293;593429;-46
2022/09/10 02:00:57;;;;;;;;;;;;;;;22.20;67.35;96436.53;180924;293;620481;-45
2022/09/10 02:01:59;;;;;;;;;;;;;;;22.22;67.39;96441.70;180770;293;621339;-45
2022/09/10 02:03:01;;;;;;;;;;;;;;;22.21;67.38;96441.47;180966;293;620548;-47
2022/09/10 02:04:03;;;;;;;;;;;;;;;22.20;67.37;96441.25;180856;293;623786;-47
2022/09/10 02:05:05;;;;;;;;;;;;;;;22.18;67.38;96432.52;180898;293;621684;-47
2022/09/10 02:06:08;;;;;;;;;;;;;;;22.20;67.40;96439.87;181025;293;620809;-46
2022/09/10 02:07:10;;;;;;;;;;;;;;;22.16;67.42;96434.84;180617;293;620089;-47
2022/09/10 02:08:12;;;;;;;;;;;;;;;22.16;67.40;96442.53;180916;293;621094;-48
2022/09/10 02:09:14;;;;;;;;;;;;;;;22.15;67.41;96437.38;181066;293;621031;-45
2022/09/10 02:10:16;;;;;;;;;;;;;;;22.16;67.44;96448.64;181131;293;621443;-49
2022/09/10 02:11:18;;;;;;;;;;;;;;;22.14;67.44;96442.67;180980;293;618534;-48
2022/09/10 02:12:20;;;;;;;;;;;;;;;22.13;67.44;96439.11;181106;293;619532;-47
2022/09/10 02:13:22;;;;;;;;;;;;;;;22.13;67.45;96441.06;180887;292;620445;-46
2022/09/10 02:14:24;;;;;;;;;;;;;;;22.14;67.47;96444.05;180583;293;620930;-46
2022/09/10 02:15:27;;;;;;;;;;;;;;;22.13;67.49;96443.83;181047;293;621527;-46
2022/09/10 02:16:29;;;;;;;;;;;;;;;22.12;67.48;96440.84;181117;293;621158;-45
2022/09/10 02:17:32;;;;;;;;;;;;;;;22.11;67.49;96441.97;181052;293;621270;-47
2022/09/10 02:18:34;;;;;;;;;;;;;;;22.11;67.49;96444.16;180739;293;621347;-45
2022/09/10 02:19:36;;;;;;;;;;;;;;;22.10;67.49;96447.27;181065;293;620305;-46
2022/09/10 02:20:38;;;;;;;;;;;;;;;22.08;67.49;96441.30;180983;293;622076;-48
2022/09/10 02:21:40;;;;;;;;;;;;;;;22.08;67.50;96446.82;180888;293;619814;-47
2022/09/10 02:22:42;;;;;;;;;;;;;;;22.07;67.51;96453.50;181084;293;620587;-49
2022/09/10 02:23:44;;;;;;;;;;;;;;;22.05;67.51;96446.92;181031;292;621230;-47
2022/09/10 02:24:46;;;;;;;;;;;;;;;22.07;67.52;96453.50;181086;293;619155;-47
2022/09/10 02:25:49;;;;;;;;;;;;;;;22.05;67.54;96445.54;180895;293;620977;-46
2022/09/10 02:26:51;;;;;;;;;;;;;;;22.04;67.56;96448.66;181154;293;619104;-48
2022/09/10 02:27:53;;;;;;;;;;;;;;;22.04;67.55;96454.17;181074;293;620664;-47
2022/09/10 02:28:55;;;;;;;;;;;;;;;;;;181108;293;620336;-47
2022/09/10 02:29:57;;;;;;;;;;;;;;;22.02;67.61;96451.77;181072;293;621135;-48
2022/09/10 02:31:00;;;;;;;;;;;;;;;22.04;67.61;96450.84;181005;293;620325;-45
2022/09/10 02:32:03;;;;;;;;;;;;;;;22.01;67.63;96443.81;181066;293;621121;-48
2022/09/10 02:33:08;;;;;;;;;;;;;;;22.03;67.67;96458.09;180868;293;621234;-47
2022/09/10 02:34:09;;;;;;;;;;;;;;;22.01;67.66;96453.47;181022;293;619963;-48
2022/09/10 02:35:12;;;;;;;;;;;;;;;22.00;67.69;96453.25;180999;293;620877;-47
2022/09/10 02:36:14;;;;;;;;;;;;;;;22.01;67.69;96460.38;181088;293;621127;-47
2022/09/10 02:37:16;;;;;;;;;;;;;;;22.01;67.71;96457.61;180421;293;619718;-46
2022/09/10 02:38:18;;;;;;;;;;;;;;;21.99;67.71;96448.89;180967;293;621336;-48
2022/09/10 02:39:20;;;;;;;;;;;;;;;21.99;67.72;96448.31;180966;293;621787;-46
2022/09/10 02:40:22;;;;;;;;;;;;;;;21.99;67.75;96447.51;181071;293;620139;-47
2022/09/10 02:41:25;;;;;;;;;;;;;;;21.99;67.76;96451.64;180835;293;621256;-45
2022/09/10 02:42:26;;;;;;;;;;;;;;;21.98;67.76;96447.28;180928;293;621111;-48
2022/09/10 02:43:28;;;;;;;;;;;;;;;21.97;67.75;96446.48;181054;292;621487;-48
2022/09/10 02:44:30;;;;;;;;;;;;;;;21.97;67.77;96444.30;180938;293;619438;-47
2022/09/10 02:45:33;;;;;;;;;;;;;;;21.96;67.79;96439.36;180993;293;622126;-47
2022/09/10 02:46:35;;;;;;;;;;;;;;;21.95;67.79;96446.84;181081;293;621123;-47
2022/09/10 02:47:37;;;;;;;;;;;;;;;21.94;67.81;96443.05;181136;293;620380;-48
2022/09/10 02:48:39;;;;;;;;;;;;;;;21.95;67.80;96446.03;180993;293;620756;-44
2022/09/10 02:49:40;;;;;;;;;;;;;;;21.93;67.84;96445.01;181127;293;621481;-49
2022/09/10 02:50:42;;;;;;;;;;;;;;;21.93;67.85;96447.77;181003;293;620821;-47
2022/09/10 02:51:44;;;;;;;;;;;;;;;21.94;67.87;96450.75;181080;293;621362;-50
2022/09/10 02:52:47;;;;;;;;;;;;;;;21.93;67.84;96452.48;181102;293;621283;-46
2022/09/10 02:53:49;;;;;;;;;;;;;;;21.92;67.85;96453.06;180664;293;620443;-46
2022/09/10 02:54:51;;;;;;;;;;;;;;;21.92;67.87;96453.06;181050;293;620996;-46
2022/09/10 02:55:53;;;;;;;;;;;;;;;21.91;67.89;96450.08;180832;293;618780;-47
2022/09/10 02:56:55;;;;;;;;;;;;;;;21.92;67.90;96448.92;180694;293;619269;-50
2022/09/10 02:57:57;;;;;;;;;;;;;;;21.89;67.90;96449.60;181176;293;620187;-47
2022/09/10 02:58:59;;;;;;;;;;;;;;;21.91;67.91;96452.84;181166;293;621193;-46
2022/09/10 03:00:01;;;;;;;;;;;;;;;21.92;67.92;96450.30;181113;293;621837;-45
2022/09/10 03:01:04;;;;;;;;;;;;;;;21.89;67.94;96450.98;181130;293;621379;-45
2022/09/10 03:02:06;;;;;;;;;;;;;;;21.91;67.95;96453.41;181212;293;620465;-47
2022/09/10 03:03:08;;;;;;;;;;;;;;;21.90;67.96;96448.48;181205;293;620646;-49
2022/09/10 03:04:10;;;;;;;;;;;;;;;21.87;67.97;96453.29;181211;293;621060;-46
2022/09/10 03:05:12;;;;;;;;;;;;;;;21.89;67.97;96452.94;181190;293;621498;-46
2022/09/10 03:06:14;;;;;;;;;;;;;;;21.88;68.00;96455.47;181196;293;619618;-46
2022/09/10 03:07:18;;;;;;;;;;;;;;;21.87;68.01;96454.67;181237;293;620291;-45
2022/09/10 03:08:19;;;;;;;;;;;;;;;21.87;68.01;96450.53;180942;293;588108;-45
2022/09/10 03:09:21;;;;;;;;;;;;;;;21.87;68.01;96456.05;181213;293;620462;-45
2022/09/10 03:10:23;;;;;;;;;;;;;;;21.87;68.03;96459.39;181189;293;620397;-47
2022/09/10 03:11:26;;;;;;;;;;;;;;;21.86;68.03;96454.45;180812;293;621355;-45
2022/09/10 03:12:28;;;;;;;;;;;;;;;21.86;68.04;96455.83;181285;293;621250;-46
2022/09/10 03:13:30;;;;;;;;;;;;;;;21.85;68.03;96455.59;181138;292;622364;-46
2022/09/10 03:14:32;;;;;;;;;;;;;;;21.85;68.02;96454.80;180821;293;620310;-47
2022/09/10 03:15:34;;;;;;;;;;;;;;;21.85;68.03;96456.98;181147;293;619326;-46
2022/09/10 03:16:36;;;;;;;;;;;;;;;21.85;68.06;96452.04;181156;293;620353;-47
2022/09/10 03:17:38;;;;;;;;;;;;;;;21.84;68.08;96451.81;180991;293;621104;-46
2022/09/10 03:18:40;;;;;;;;;;;;;;;21.84;68.06;96457.33;181113;293;620878;-44
2022/09/10 03:19:42;;;;;;;;;;;;;;;21.83;68.04;96448.25;180930;293;620568;-46
2022/09/10 03:20:44;;;;;;;;;;;;;;;21.82;68.07;96452.17;180523;293;620482;-47
2022/09/10 03:21:46;;;;;;;;;;;;;;;21.83;68.08;96449.63;181101;293;620591;-46
2022/09/10 03:22:50;;;;;;;;;;;;;;;21.82;68.09;96450.79;181143;293;620672;-47
2022/09/10 03:23:52;;;;;;;;;;;;;;;21.82;68.10;96449.98;181215;293;620318;-45
2022/09/10 03:24:54;;;;;;;;;;;;;;;21.82;68.13;96454.13;181142;293;620058;-48
2022/09/10 03:25:56;;;;;;;;;;;;;;;21.81;68.11;96449.19;181162;293;621352;-47
2022/09/10 03:26:58;;;;;;;;;;;;;;;21.83;68.12;96453.77;181047;293;621081;-45
2022/09/10 03:28:00;;;;;;;;;;;;;;;21.82;68.14;96449.98;181174;293;619187;-45
2022/09/10 03:29:02;;;;;;;;;;;;;;;21.80;68.11;96450.34;181202;293;621100;-46
2022/09/10 03:30:04;;;;;;;;;;;;;;;21.81;68.11;96451.14;181086;293;621426;-46
2022/09/10 03:31:06;;;;;;;;;;;;;;;21.81;68.13;96446.42;181189;293;621339;-48
2022/09/10 03:32:07;;;;;;;;;;;;;;;21.80;68.11;96447.58;181169;293;621078;-45
2022/09/10 03:33:10;;;;;;;;;;;;;;;21.80;68.14;96449.51;180784;292;620224;-46
2022/09/10 03:34:13;;;;;;;;;;;;;;;21.79;68.14;96445.95;181019;293;620206;-47
2022/09/10 03:35:15;;;;;;;;;;;;;;;21.79;68.14;96448.70;181207;293;619693;-47
2022/09/10 03:36:17;;;;;;;;;;;;;;;21.78;68.15;96452.62;181172;293;620387;-45
2022/09/10 03:37:20;;;;;;;;;;;;;;;21.78;68.16;96449.86;181011;293;618517;-45
2022/09/10 03:38:22;;;;;;;;;;;;;;;21.78;68.15;96454.00;180845;293;622442;-49
2022/09/10 03:39:24;;;;;;;;;;;;;;;21.78;68.16;96451.24;181223;293;621803;-47
2022/09/10 03:40:28;;;;;;;;;;;;;;;21.77;68.18;96456.53;181204;293;621281;-48
2022/09/10 03:41:30;;;;;;;;;;;;;;;21.77;68.19;96448.26;181205;293;594296;-46
2022/09/10 03:42:32;;;;;;;;;;;;;;;21.79;68.19;96450.66;181224;293;620590;-47
2022/09/10 03:43:34;;;;;;;;;;;;;;;21.76;68.20;96443.89;181186;293;621444;-45
2022/09/10 03:44:36;;;;;;;;;;;;;;;21.77;68.20;96448.84;181195;293;619900;-45
2022/09/10 03:45:38;;;;;;;;;;;;;;;21.75;68.22;96442.30;181258;293;619542;-46
2022/09/10 03:46:40;;;;;;;;;;;;;;;21.75;68.22;96439.53;181153;293;619902;-44
2022/09/10 03:47:42;;;;;;;;;;;;;;;21.76;68.21;96443.89;181188;293;621613;-47
2022/09/10 03:48:44;;;;;;;;;;;;;;;21.76;68.23;96442.52;181150;293;620455;-49
2022/09/10 03:49:46;;;;;;;;;;;;;;;21.75;68.25;96443.67;181098;293;621306;-45
2022/09/10 03:50:49;;;;;;;;;;;;;;;21.77;68.27;96442.73;181119;293;620380;-48
2022/09/10 03:51:52;;;;;;;;;;;;;;;21.76;68.26;96438.38;180959;293;620472;-45
2022/09/10 03:52:55;;;;;;;;;;;;;;;21.76;68.26;96438.38;181144;293;620491;-45
2022/09/10 03:53:58;;;;;;;;;;;;;;;21.76;68.28;96436.20;181165;293;620687;-45
2022/09/10 03:55:00;;;;;;;;;;;;;;;21.75;68.27;96443.67;181211;293;619394;-46
2022/09/10 03:56:02;;;;;;;;;;;;;;;21.75;68.27;96436.78;180478;293;620842;-46
2022/09/10 03:57:04;;;;;;;;;;;;;;;21.74;68.27;96437.93;181033;293;622168;-46
2022/09/10 03:58:06;;;;;;;;;;;;;;;21.74;68.27;96436.55;181141;293;619473;-49
2022/09/10 03:59:08;;;;;;;;;;;;;;;21.74;68.27;96436.55;181121;293;620760;-45
2022/09/10 04:00:13;;;;;;;;;;;;;;;21.73;68.27;96428.05;180980;293;621333;-46
2022/09/10 04:01:14;;;;;;;;;;;;;;;21.74;68.28;96434.37;180504;293;621045;-47
2022/09/10 04:02:16;;;;;;;;;;;;;;;21.73;68.29;96430.81;181098;293;621781;-45
2022/09/10 04:03:19;;;;;;;;;;;;;;;21.72;68.28;96429.20;181052;293;619354;-50
2022/09/10 04:04:21;;;;;;;;;;;;;;;21.71;68.27;96430.36;181084;293;618953;-46
2022/09/10 04:05:24;;;;;;;;;;;;;;;21.73;68.28;96430.81;181061;293;621205;-47
2022/09/10 04:06:27;;;;;;;;;;;;;;;21.71;68.32;96430.36;181093;293;620540;-48
2022/09/10 04:07:29;;;;;;;;;;;;;;;21.71;68.30;96422.09;180808;293;620663;-48
2022/09/10 04:08:31;;;;;;;;;;;;;;;21.70;68.29;96431.52;181045;293;620265;-45
2022/09/10 04:09:33;;;;;;;;;;;;;;;21.71;68.27;96431.74;181118;293;619246;-49
2022/09/10 04:10:35;;;;;;;;;;;;;;;21.69;68.29;96431.27;180950;293;621004;-46
2022/09/10 04:11:38;;;;;;;;;;;;;;;21.72;68.31;96436.68;180814;293;619745;-46
2022/09/10 04:12:40;;;;;;;;;;;;;;;21.71;68.32;96435.88;181135;293;620324;-44
2022/09/10 04:13:42;;;;;;;;;;;;;;;21.71;68.30;96440.02;181034;292;621074;-45
2022/09/10 04:14:45;;;;;;;;;;;;;;;21.72;68.30;96441.62;181048;293;621383;-45
2022/09/10 04:15:47;;;;;;;;;;;;;;;21.71;68.31;96437.25;181057;293;621212;-47
2022/09/10 04:16:49;;;;;;;;;;;;;;;21.71;68.29;96441.39;180964;293;619864;-46
2022/09/10 04:17:51;;;;;;;;;;;;;;;21.71;68.29;96437.25;181055;293;620510;-48
2022/09/10 04:18:53;;;;;;;;;;;;;;;21.70;68.28;96434.85;180829;293;620771;-45
2022/09/10 04:19:55;;;;;;;;;;;;;;;21.70;68.29;96434.85;181047;293;619407;-46
2022/09/10 04:20:57;;;;;;;;;;;;;;;21.69;68.29;96436.78;181006;293;621391;-46
2022/09/10 04:21:59;;;;;;;;;;;;;;;21.70;68.29;96438.98;181006;293;621421;-47
2022/09/10 04:23:01;;;;;;;;;;;;;;;21.68;68.30;96439.31;181061;293;621452;-47
2022/09/10 04:24:03;;;;;;;;;;;;;;;21.68;68.32;96439.31;181020;292;620529;-47
2022/09/10 04:25:06;;;;;;;;;;;;;;;21.68;68.32;96440.69;180947;293;620810;-47
2022/09/10 04:26:07;;;;;;;;;;;;;;;21.68;68.33;96440.69;181073;293;622077;-45
2022/09/10 04:27:09;;;;;;;;;;;;;;;21.68;68.34;96444.83;181097;293;620556;-46
2022/09/10 04:28:11;;;;;;;;;;;;;;;21.69;68.35;96446.43;180742;293;620982;-50
2022/09/10 04:29:13;;;;;;;;;;;;;;;21.67;68.35;96440.47;181110;293;620832;-47
2022/09/10 04:30:15;;;;;;;;;;;;;;;21.68;68.36;96442.64;181108;293;620120;-46
2022/09/10 04:31:17;;;;;;;;;;;;;;;21.65;68.37;96438.63;180804;293;621669;-46
2022/09/10 04:32:19;;;;;;;;;;;;;;;21.66;68.38;96442.42;181037;293;619858;-47
2022/09/10 04:33:21;;;;;;;;;;;;;;;21.65;68.38;96438.63;180882;293;621429;-46
2022/09/10 04:34:23;;;;;;;;;;;;;;;21.66;68.39;96443.00;181013;293;618961;-47
2022/09/10 04:35:25;;;;;;;;;;;;;;;21.66;68.38;96440.23;180775;293;621315;-47
2022/09/10 04:36:27;;;;;;;;;;;;;;;21.67;68.38;96445.98;181065;293;621074;-47
2022/09/10 04:37:30;;;;;;;;;;;;;;;21.66;68.37;96436.10;181123;293;620645;-47
2022/09/10 04:38:32;;;;;;;;;;;;;;;21.66;68.38;96439.66;181132;293;621601;-47
2022/09/10 04:39:34;;;;;;;;;;;;;;;21.66;68.38;96438.86;181093;293;621259;-48
2022/09/10 04:40:37;;;;;;;;;;;;;;;21.64;68.40;96439.80;180995;293;620209;-48
2022/09/10 04:41:39;;;;;;;;;;;;;;;21.67;68.36;96444.60;181099;293;619236;-47
2022/09/10 04:42:41;;;;;;;;;;;;;;;21.65;68.37;96444.15;181048;293;621702;-49
2022/09/10 04:43:43;;;;;;;;;;;;;;;21.64;68.38;96441.97;181072;293;621500;-48
2022/09/10 04:44:45;;;;;;;;;;;;;;;21.65;68.37;96446.33;181011;293;620426;-48
2022/09/10 04:45:46;;;;;;;;;;;;;;;21.65;68.39;96440.02;181105;293;621255;-46
2022/09/10 04:46:48;;;;;;;;;;;;;;;21.64;68.39;96430.14;181005;293;621060;-48
2022/09/10 04:47:51;;;;;;;;;;;;;;;21.64;68.39;96443.93;180783;293;621475;-46
2022/09/10 04:48:53;;;;;;;;;;;;;;;21.63;68.40;96435.43;181073;293;620901;-46
2022/09/10 04:49:55;;;;;;;;;;;;;;;21.63;68.37;96438.98;181068;293;620306;-49
2022/09/10 04:50:58;;;;;;;;;;;;;;;21.62;68.40;96433.25;180927;293;621603;-44
2022/09/10 04:52:01;;;;;;;;;;;;;;;21.62;68.40;96435.20;181114;293;619515;-46
2022/09/10 04:53:03;;;;;;;;;;;;;;;21.62;68.40;96436.01;180984;293;621011;-46
2022/09/10 04:54:05;;;;;;;;;;;;;;;21.63;68.41;96437.61;180707;293;621072;-48
2022/09/10 04:55:07;;;;;;;;;;;;;;;21.62;68.42;96439.34;180963;293;621476;-49
2022/09/10 04:56:09;;;;;;;;;;;;;;;21.61;68.40;96439.92;180890;293;621366;-47
2022/09/10 04:57:11;;;;;;;;;;;;;;;21.64;68.42;96439.80;181029;293;621532;-46
2022/09/10 04:58:13;;;;;;;;;;;;;;;21.63;68.41;96440.95;180987;293;621316;-46
2022/09/10 04:59:15;;;;;;;;;;;;;;;21.62;68.41;96438.77;180909;293;620599;-44
2022/09/10 05:00:17;;;;;;;;;;;;;;;21.61;68.41;96437.16;181086;293;620056;-45
2022/09/10 05:01:18;;;;;;;;;;;;;;;21.62;68.42;96443.48;180962;293;619348;-47
2022/09/10 05:02:20;;;;;;;;;;;;;;;21.62;68.42;96440.72;180735;293;620798;-47
2022/09/10 05:03:22;;;;;;;;;;;;;;;21.62;68.43;96442.90;179589;294;621461;-44
2022/09/10 05:04:24;;;;;;;;;;;;;;;21.62;68.42;96440.14;179764;295;620194;-45
2022/09/10 05:05:27;;;;;;;;;;;;;;;21.61;68.41;96435.78;179733;295;620560;-46
2022/09/10 05:06:29;;;;;;;;;;;;;;;21.62;68.41;96436.01;179723;295;620745;-45
2022/09/10 05:07:31;;;;;;;;;;;;;;;21.61;68.42;96434.41;179759;295;620310;-45
2022/09/10 05:08:33;;;;;;;;;;;;;;;21.62;68.38;96436.58;179792;295;621638;-46
2022/09/10 05:09:35;;;;;;;;;;;;;;;21.62;68.40;96435.20;179659;295;620441;-46
2022/09/10 05:10:37;;;;;;;;;;;;;;;21.61;68.40;96439.92;179589;295;620564;-45
2022/09/10 05:11:39;;;;;;;;;;;;;;;21.59;68.38;96435.91;180637;293;621108;-48
2022/09/10 05:12:41;;;;;;;;;;;;;;;21.60;68.40;96442.45;181088;293;620968;-48
2022/09/10 05:13:43;;;;;;;;;;;;;;;21.60;68.40;96437.52;181044;293;621563;-48
2022/09/10 05:14:45;;;;;;;;;;;;;;;21.60;68.39;96440.27;181073;293;619440;-48
2022/09/10 05:15:48;;;;;;;;;;;;;;;21.61;68.39;96446.01;181102;293;620571;-46
2022/09/10 05:16:50;;;;;;;;;;;;;;;21.60;68.41;96441.07;180800;293;621545;-46
2022/09/10 05:17:52;;;;;;;;;;;;;;;21.60;68.41;96441.65;180971;293;620470;-46
2022/09/10 05:18:55;;;;;;;;;;;;;;;21.59;68.39;96440.84;181055;293;619291;-49
2022/09/10 05:19:57;;;;;;;;;;;;;;;21.60;68.40;96444.41;181037;293;620621;-46